sensor_id;sensor_type;location;lat;lon;timestamp;temperature;humidity
19224;DHT22;9746;47.180;9.776;2022-09-29T12:40:32;11.80;99.90
19224;DHT22;9746;47.180;9.776;2022-09-29T12:43:08;11.90;99.90
19224;DHT22;9746;47.180;9.776;2022-09-29T12:45:42;11.90;99.90
19224;DHT22;9746;47.180;9.776;2022-09-29T12:48:43;11.90;99.90
19224;DHT22;9746;47.180;9.776;2022-09-29T12:51:17;12.00;99.90
19224;DHT22;9746;47.180;9.776;2022-09-29T12:53:58;12.00;99.90
19224;DHT22;9746;47.180;9.776;2022-09-29T12:56:31;12.00;99.90
19224;DHT22;9746;47.180;9.776;2022-09-29T12:59:05;12.00;99.90
19224;DHT22;9746;47.180;9.776;2022-09-29T13:01:35;12.10;99.90
19224;DHT22;9746;47.180;9.776;2022-09-29T13:04:30;12.20;99.90
19224;DHT22;9746;47.180;9.776;2022-09-29T13:10:33;12.50;99.90
19224;DHT22;9746;47.180;9.776;2022-09-29T13:16:21;12.70;99.90
19224;DHT22;9746;47.180;9.776;2022-09-29T13:19:20;12.80;99.90
19224;DHT22;9746;47.180;9.776;2022-09-29T13:21:59;12.90;99.90
19224;DHT22;9746;47.180;9.776;2022-09-29T13:24:42;12.80;99.90
19224;DHT22;9746;47.180;9.776;2022-09-29T13:27:29;12.80;99.90
19224;DHT22;9746;47.180;9.776;2022-09-29T13:30:04;12.70;99.90
19224;DHT22;9746;47.180;9.776;2022-09-29T13:32:39;12.50;99.90
19224;DHT22;9746;47.180;9.776;2022-09-29T13:35:13;12.50;99.90
19224;DHT22;9746;47.180;9.776;2022-09-29T13:37:48;12.40;99.90
19224;DHT22;9746;47.180;9.776;2022-09-29T13:40:21;12.30;99.90
19224;DHT22;9746;47.180;9.776;2022-09-29T13:42:50;12.30;99.90
19224;DHT22;9746;47.180;9.776;2022-09-29T13:45:39;12.30;99.90
19224;DHT22;9746;47.180;9.776;2022-09-29T13:51:44;12.10;99.90
19224;DHT22;9746;47.180;9.776;2022-09-29T13:54:20;12.00;99.90
19224;DHT22;9746;47.180;9.776;2022-09-29T13:56:49;12.00;99.90
19224;DHT22;9746;47.180;9.776;2022-09-29T13:59:20;12.00;99.90
19224;DHT22;9746;47.180;9.776;2022-09-29T14:01:50;11.90;99.90
19224;DHT22;9746;47.180;9.776;2022-09-29T14:04:50;11.90;99.90
19224;DHT22;9746;47.180;9.776;2022-09-29T14:07:38;11.70;99.90
19224;DHT22;9746;47.180;9.776;2022-09-29T14:10:20;11.70;99.90
19224;DHT22;9746;47.180;9.776;2022-09-29T14:12:56;11.80;99.90
19224;DHT22;9746;47.180;9.776;2022-09-29T14:15:26;11.80;99.90
19224;DHT22;9746;47.180;9.776;2022-09-29T14:17:59;11.80;99.90
19224;DHT22;9746;47.180;9.776;2022-09-29T14:20:31;11.80;99.90
19224;DHT22;9746;47.180;9.776;2022-09-29T14:23:02;11.80;99.90
19224;DHT22;9746;47.180;9.776;2022-09-29T14:28:34;11.70;99.90
19224;DHT22;9746;47.180;9.776;2022-09-29T14:31:16;11.70;99.90
19224;DHT22;9746;47.180;9.776;2022-09-29T14:33:46;11.70;99.90
19224;DHT22;9746;47.180;9.776;2022-09-29T14:36:20;11.70;99.90
19224;DHT22;9746;47.180;9.776;2022-09-29T14:38:51;11.80;99.90
19224;DHT22;9746;47.180;9.776;2022-09-29T14:41:24;11.80;99.90
19224;DHT22;9746;47.180;9.776;2022-09-29T14:43:54;11.90;99.90
19224;DHT22;9746;47.180;9.776;2022-09-29T14:46:53;11.90;99.90
19224;DHT22;9746;47.180;9.776;2022-09-29T14:50:00;12.00;99.90
19224;DHT22;9746;47.180;9.776;2022-09-29T14:52:58;12.00;99.90
19224;DHT22;9746;47.180;9.776;2022-09-29T14:55:44;12.10;99.90
19224;DHT22;9746;47.180;9.776;2022-09-29T14:58:23;12.10;99.90
19224;DHT22;9746;47.180;9.776;2022-09-29T15:01:05;12.00;99.90
19224;DHT22;9746;47.180;9.776;2022-09-29T15:03:40;12.00;99.90
19224;DHT22;9746;47.180;9.776;2022-09-29T15:06:13;12.00;99.90
19224;DHT22;9746;47.180;9.776;2022-09-29T15:08:42;12.00;99.90
19224;DHT22;9746;47.180;9.776;2022-09-29T15:11:32;12.00;99.90
19224;DHT22;9746;47.180;9.776;2022-09-29T15:14:21;11.90;99.90
19224;DHT22;9746;47.180;9.776;2022-09-29T15:17:04;11.90;99.90
19224;DHT22;9746;47.180;9.776;2022-09-29T15:19:43;11.90;99.90
19224;DHT22;9746;47.180;9.776;2022-09-29T15:22:27;11.80;99.90
19224;DHT22;9746;47.180;9.776;2022-09-29T15:27:55;11.70;99.90
19224;DHT22;9746;47.180;9.776;2022-09-29T15:30:26;11.70;99.90
19224;DHT22;9746;47.180;9.776;2022-09-29T15:33:02;11.70;99.90
19224;DHT22;9746;47.180;9.776;2022-09-29T15:35:30;11.70;99.90
19224;DHT22;9746;47.180;9.776;2022-09-29T15:38:16;11.60;99.90
19224;DHT22;9746;47.180;9.776;2022-09-29T15:40:52;11.60;99.90
19224;DHT22;9746;47.180;9.776;2022-09-29T15:43:24;11.60;99.90
19224;DHT22;9746;47.180;9.776;2022-09-29T15:45:54;11.60;99.90
19224;DHT22;9746;47.180;9.776;2022-09-29T15:48:25;11.50;99.90
19224;DHT22;9746;47.180;9.776;2022-09-29T15:50:54;11.40;99.90
19224;DHT22;9746;47.180;9.776;2022-09-29T15:53:25;11.40;99.90
19224;DHT22;9746;47.180;9.776;2022-09-29T15:55:54;11.30;99.90
19224;DHT22;9746;47.180;9.776;2022-09-29T15:58:42;11.30;99.90
19224;DHT22;9746;47.180;9.776;2022-09-29T16:01:12;11.20;99.90
19224;DHT22;9746;47.180;9.776;2022-09-29T16:03:44;11.10;99.90
19224;DHT22;9746;47.180;9.776;2022-09-29T16:06:26;11.10;99.90
19224;DHT22;9746;47.180;9.776;2022-09-29T16:08:56;10.90;99.90
19224;DHT22;9746;47.180;9.776;2022-09-29T16:11:26;10.90;99.90
19224;DHT22;9746;47.180;9.776;2022-09-29T16:14:01;10.80;99.90
19224;DHT22;9746;47.180;9.776;2022-09-29T16:16:33;10.90;99.90
19224;DHT22;9746;47.180;9.776;2022-09-29T16:19:07;10.90;99.90
19224;DHT22;9746;47.180;9.776;2022-09-29T16:21:36;10.80;99.90
19224;DHT22;9746;47.180;9.776;2022-09-29T16:24:14;10.80;99.90
19224;DHT22;9746;47.180;9.776;2022-09-29T16:26:46;10.80;99.90
19224;DHT22;9746;47.180;9.776;2022-09-29T16:29:30;10.80;99.90
19224;DHT22;9746;47.180;9.776;2022-09-29T16:31:58;10.70;99.90
19224;DHT22;9746;47.180;9.776;2022-09-29T16:34:31;10.70;99.90
19224;DHT22;9746;47.180;9.776;2022-09-29T16:37:01;10.70;99.90
19224;DHT22;9746;47.180;9.776;2022-09-29T16:39:31;10.70;99.90
19224;DHT22;9746;47.180;9.776;2022-09-29T16:42:01;10.70;99.90
19224;DHT22;9746;47.180;9.776;2022-09-29T16:44:33;10.70;99.90
19224;DHT22;9746;47.180;9.776;2022-09-29T16:47:10;10.70;99.90
19224;DHT22;9746;47.180;9.776;2022-09-29T16:49:45;10.70;99.90
19224;DHT22;9746;47.180;9.776;2022-09-29T16:52:16;10.70;99.90
19224;DHT22;9746;47.180;9.776;2022-09-29T16:54:48;10.70;99.90
19224;DHT22;9746;47.180;9.776;2022-09-29T16:57:25;10.70;99.90
19224;DHT22;9746;47.180;9.776;2022-09-29T16:59:58;10.70;99.90
19224;DHT22;9746;47.180;9.776;2022-09-29T17:02:27;10.70;99.90
19224;DHT22;9746;47.180;9.776;2022-09-29T17:04:56;10.60;99.90
19224;DHT22;9746;47.180;9.776;2022-09-29T17:07:26;10.50;99.90
19224;DHT22;9746;47.180;9.776;2022-09-29T17:09:56;10.50;99.90
19224;DHT22;9746;47.180;9.776;2022-09-29T17:12:26;10.50;99.90
19224;DHT22;9746;47.180;9.776;2022-09-29T17:14:55;10.40;99.90
19224;DHT22;9746;47.180;9.776;2022-09-29T17:17:25;10.50;99.90
19224;DHT22;9746;47.180;9.776;2022-09-29T17:19:54;10.60;99.90
19224;DHT22;9746;47.180;9.776;2022-09-29T17:22:28;10.50;99.90
19224;DHT22;9746;47.180;9.776;2022-09-29T17:24:56;10.50;99.90
19224;DHT22;9746;47.180;9.776;2022-09-29T17:27:24;10.50;99.90
19224;DHT22;9746;47.180;9.776;2022-09-29T17:30:12;10.50;99.90
19224;DHT22;9746;47.180;9.776;2022-09-29T17:32:43;10.40;99.90
19224;DHT22;9746;47.180;9.776;2022-09-29T17:35:12;10.30;99.90
19224;DHT22;9746;47.180;9.776;2022-09-29T17:37:40;10.20;99.90
19224;DHT22;9746;47.180;9.776;2022-09-29T17:40:18;10.20;99.90
19224;DHT22;9746;47.180;9.776;2022-09-29T17:42:47;10.10;99.90
19224;DHT22;9746;47.180;9.776;2022-09-29T17:45:17;10.10;99.90
19224;DHT22;9746;47.180;9.776;2022-09-29T17:47:46;10.10;99.90
19224;DHT22;9746;47.180;9.776;2022-09-29T17:50:20;10.10;99.90
19224;DHT22;9746;47.180;9.776;2022-09-29T17:52:49;10.00;99.90
19224;DHT22;9746;47.180;9.776;2022-09-29T17:55:17;10.00;99.90
19224;DHT22;9746;47.180;9.776;2022-09-29T17:57:48;9.90;99.90
19224;DHT22;9746;47.180;9.776;2022-09-29T18:00:23;9.80;99.90
19224;DHT22;9746;47.180;9.776;2022-09-29T18:02:53;9.80;99.90
19224;DHT22;9746;47.180;9.776;2022-09-29T18:05:22;9.70;99.90
19224;DHT22;9746;47.180;9.776;2022-09-29T18:07:50;9.70;99.90
19224;DHT22;9746;47.180;9.776;2022-09-29T18:10:24;9.70;99.90
19224;DHT22;9746;47.180;9.776;2022-09-29T18:12:53;9.80;99.90
19224;DHT22;9746;47.180;9.776;2022-09-29T18:15:24;9.80;99.90
19224;DHT22;9746;47.180;9.776;2022-09-29T18:17:55;9.80;99.90
19224;DHT22;9746;47.180;9.776;2022-09-29T18:20:24;9.80;99.90
19224;DHT22;9746;47.180;9.776;2022-09-29T18:22:51;9.80;99.90
19224;DHT22;9746;47.180;9.776;2022-09-29T18:25:19;9.70;99.90
19224;DHT22;9746;47.180;9.776;2022-09-29T18:27:47;9.80;99.90
19224;DHT22;9746;47.180;9.776;2022-09-29T18:30:17;9.80;99.90
19224;DHT22;9746;47.180;9.776;2022-09-29T18:32:48;9.80;99.90
19224;DHT22;9746;47.180;9.776;2022-09-29T18:35:19;9.80;99.90
19224;DHT22;9746;47.180;9.776;2022-09-29T18:37:47;9.70;99.90
19224;DHT22;9746;47.180;9.776;2022-09-29T18:40:15;9.70;99.90
19224;DHT22;9746;47.180;9.776;2022-09-29T18:42:44;9.70;99.90
19224;DHT22;9746;47.180;9.776;2022-09-29T18:45:14;9.60;99.90
19224;DHT22;9746;47.180;9.776;2022-09-29T18:47:43;9.60;99.90
19224;DHT22;9746;47.180;9.776;2022-09-29T18:50:17;9.60;99.90
19224;DHT22;9746;47.180;9.776;2022-09-29T18:52:45;9.60;99.90
19224;DHT22;9746;47.180;9.776;2022-09-29T18:55:14;9.60;99.90
19224;DHT22;9746;47.180;9.776;2022-09-29T18:57:42;9.60;99.90
19224;DHT22;9746;47.180;9.776;2022-09-29T19:00:13;9.50;99.90
19224;DHT22;9746;47.180;9.776;2022-09-29T19:02:42;9.50;99.90
19224;DHT22;9746;47.180;9.776;2022-09-29T19:05:11;9.60;99.90
19224;DHT22;9746;47.180;9.776;2022-09-29T19:07:43;9.60;99.90
19224;DHT22;9746;47.180;9.776;2022-09-29T19:10:14;9.60;99.90
19224;DHT22;9746;47.180;9.776;2022-09-29T19:12:42;9.70;99.90
19224;DHT22;9746;47.180;9.776;2022-09-29T19:15:11;9.70;99.90
19224;DHT22;9746;47.180;9.776;2022-09-29T19:17:38;9.70;99.90
19224;DHT22;9746;47.180;9.776;2022-09-29T19:20:06;9.80;99.90
